createdAt,value
2018-04-10T00:00:32.096Z,930.34
2018-04-10T00:01:32.145Z,930.32
2018-04-10T00:02:32.433Z,930.37
2018-04-10T00:03:32.250Z,930.38
2018-04-10T00:04:32.288Z,930.36
2018-04-10T00:05:32.447Z,930.39
2018-04-10T00:06:32.395Z,930.36
2018-04-10T00:07:32.447Z,930.37
2018-04-10T00:08:32.489Z,930.39
2018-04-10T00:09:32.537Z,930.40
2018-04-10T00:10:32.585Z,930.38
2018-04-10T00:11:32.638Z,930.38
2018-04-10T00:12:32.668Z,930.40
2018-04-10T00:13:32.713Z,930.39
2018-04-10T00:14:32.795Z,930.41
2018-04-10T00:16:32.846Z,930.43
2018-04-10T00:17:32.898Z,930.42
2018-04-10T00:18:32.967Z,930.46
2018-04-10T00:19:32.994Z,930.48
2018-04-10T00:20:33.048Z,930.42
2018-04-10T00:21:33.086Z,930.43
2018-04-10T00:22:33.148Z,930.46
2018-04-10T00:23:33.206Z,930.46
2018-04-10T00:24:33.256Z,930.48
2018-04-10T00:25:33.283Z,930.50
2018-04-10T00:26:33.330Z,930.58
2018-04-10T00:27:33.383Z,930.52
2018-04-10T00:28:33.415Z,930.55
2018-04-10T00:29:33.505Z,930.57
2018-04-10T00:30:33.622Z,930.66
2018-04-10T00:31:33.557Z,930.61
2018-04-10T00:32:33.604Z,930.66
2018-04-10T00:33:33.657Z,930.60
2018-04-10T00:34:33.691Z,930.61
2018-04-10T00:35:33.739Z,930.63
2018-04-10T00:36:33.794Z,930.64
2018-04-10T00:37:34.040Z,930.68
2018-04-10T00:38:33.872Z,930.59
2018-04-10T00:39:33.961Z,930.58
2018-04-10T00:40:34.277Z,930.57
2018-04-10T00:41:34.045Z,930.66
2018-04-10T00:42:34.102Z,930.62
2018-04-10T00:43:34.148Z,930.66
2018-04-10T00:44:34.173Z,930.67
2018-04-10T00:45:34.242Z,930.68
2018-04-10T00:46:34.254Z,930.68
2018-04-10T00:47:34.505Z,930.79
2018-04-10T00:48:34.588Z,930.74
2018-04-10T00:49:34.401Z,930.80
2018-04-10T00:50:34.542Z,930.75
2018-04-10T00:51:34.514Z,930.71
2018-04-10T00:52:34.537Z,930.72
2018-04-10T00:53:34.598Z,930.72
2018-04-10T00:54:34.640Z,930.68
2018-04-10T00:55:34.680Z,930.77
2018-04-10T00:57:34.765Z,930.74
2018-04-10T00:58:34.825Z,930.75
2018-04-10T00:59:34.865Z,930.79
2018-04-10T01:00:34.906Z,930.79
2018-04-10T01:01:34.967Z,930.79
2018-04-10T01:02:35.008Z,930.73
2018-04-10T01:03:35.065Z,930.74
2018-04-10T01:04:35.114Z,930.72
2018-04-10T01:05:35.167Z,930.74
2018-04-10T01:06:35.224Z,930.69
2018-04-10T01:07:35.379Z,930.68
2018-04-10T01:08:35.302Z,930.67
2018-04-10T01:09:35.332Z,930.68
2018-04-10T01:10:35.387Z,930.65
2018-04-10T01:11:35.434Z,930.70
2018-04-10T01:12:35.459Z,930.69
2018-04-10T01:13:35.537Z,930.67
2018-04-10T01:14:35.781Z,930.66
2018-04-10T01:15:35.610Z,930.69
2018-04-10T01:16:35.664Z,930.67
2018-04-10T01:17:35.835Z,930.67
2018-04-10T01:18:35.761Z,930.69
2018-04-10T01:19:35.809Z,930.69
2018-04-10T01:20:35.868Z,930.71
2018-04-10T01:21:35.892Z,930.71
2018-04-10T01:22:36.003Z,930.68
2018-04-10T01:23:36.008Z,930.69
2018-04-10T01:24:36.048Z,930.70
2018-04-10T01:25:36.120Z,930.73
2018-04-10T01:26:36.128Z,930.75
2018-04-10T01:27:36.213Z,930.73
2018-04-10T01:28:36.246Z,930.75
2018-04-10T01:29:36.393Z,930.76
2018-04-10T01:30:36.317Z,930.74
2018-04-10T01:31:36.357Z,930.73
2018-04-10T01:32:36.409Z,930.73
2018-04-10T01:33:36.444Z,930.73
2018-04-10T01:34:36.494Z,930.69
2018-04-10T01:35:36.569Z,930.71
2018-04-10T01:36:36.784Z,930.68
2018-04-10T01:37:36.842Z,930.74
2018-04-10T01:38:36.698Z,930.75
2018-04-10T01:39:36.753Z,930.75
2018-04-10T01:40:36.896Z,930.68
2018-04-10T01:41:36.830Z,930.71
2018-04-10T01:42:36.891Z,930.74
2018-04-10T01:44:36.972Z,930.80
2018-04-10T01:45:37.113Z,930.79
2018-04-10T01:46:37.055Z,930.78
2018-04-10T01:47:37.147Z,930.76
2018-04-10T01:48:37.143Z,930.78
2018-04-10T01:49:37.247Z,930.71
2018-04-10T01:50:37.250Z,930.75
2018-04-10T01:51:37.295Z,930.72
2018-04-10T01:52:37.342Z,930.72
2018-04-10T01:53:37.377Z,930.75
2018-04-10T01:54:37.432Z,930.69
2018-04-10T01:55:37.587Z,930.70
2018-04-10T01:56:37.516Z,930.69
2018-04-10T01:57:37.588Z,930.61
2018-04-10T01:58:37.649Z,930.63
2018-04-10T01:59:37.881Z,930.58
2018-04-10T02:00:37.800Z,930.64
2018-04-10T02:01:37.775Z,930.64
2018-04-10T02:03:37.868Z,930.62
2018-04-10T02:04:37.913Z,930.65
2018-04-10T02:05:37.988Z,930.63
2018-04-10T02:06:38.000Z,930.63
2018-04-10T02:07:38.050Z,930.61
2018-04-10T02:08:38.079Z,930.58
2018-04-10T02:09:38.126Z,930.60
2018-04-10T02:11:11.868Z,930.59
2018-04-10T02:11:50.976Z,930.61
2018-04-10T02:12:38.284Z,930.61
2018-04-10T02:13:38.350Z,930.61
2018-04-10T02:14:38.391Z,930.61
2018-04-10T02:15:38.421Z,930.64
2018-04-10T02:16:38.466Z,930.60
2018-04-10T02:17:38.518Z,930.63
2018-04-10T02:18:38.565Z,930.59
2018-04-10T02:19:38.630Z,930.57
2018-04-10T02:20:38.663Z,930.58
2018-04-10T02:21:38.703Z,930.60
2018-04-10T02:22:38.839Z,930.63
2018-04-10T02:23:38.904Z,930.64
2018-04-10T02:24:38.823Z,930.64
2018-04-10T02:25:38.872Z,930.64
2018-04-10T02:26:38.943Z,930.62
2018-04-10T02:28:39.002Z,930.66
2018-04-10T02:29:39.072Z,930.69
2018-04-10T02:30:39.306Z,930.70
2018-04-10T02:31:39.349Z,930.70
2018-04-10T02:32:39.220Z,930.68
2018-04-10T02:33:39.358Z,930.65
2018-04-10T02:34:39.307Z,930.67
2018-04-10T02:35:39.334Z,930.69
2018-04-10T02:36:39.405Z,930.63
2018-04-10T02:37:39.445Z,930.69
2018-04-10T02:38:39.585Z,930.77
2018-04-10T02:40:39.579Z,930.66
2018-04-10T02:41:39.643Z,930.65
2018-04-10T02:42:39.665Z,930.67
2018-04-10T02:43:39.720Z,930.70
2018-04-10T02:44:39.745Z,930.72
2018-04-10T02:45:39.803Z,930.69
2018-04-10T02:46:39.870Z,930.65
2018-04-10T02:47:39.918Z,930.71
2018-04-10T02:48:40.056Z,930.72
2018-04-10T02:49:39.990Z,930.71
2018-04-10T02:50:40.024Z,930.72
2018-04-10T02:51:40.109Z,930.69
2018-04-10T02:52:40.123Z,930.72
2018-04-10T02:53:40.275Z,930.74
2018-04-10T02:54:40.235Z,930.72
2018-04-10T02:55:40.274Z,930.75
2018-04-10T02:56:40.316Z,930.74
2018-04-10T02:57:40.372Z,930.73
2018-04-10T02:58:40.433Z,930.75
2018-04-10T02:59:40.471Z,930.73
2018-04-10T03:00:40.513Z,930.74
2018-04-10T03:01:40.550Z,930.73
2018-04-10T03:02:40.596Z,930.75
2018-04-10T03:03:40.750Z,930.73
2018-04-10T03:04:40.797Z,930.68
2018-04-10T03:05:40.736Z,930.70
2018-04-10T03:06:40.773Z,930.66
2018-04-10T03:07:40.824Z,930.62
2018-04-10T03:08:40.890Z,930.64
2018-04-10T03:09:41.029Z,930.61
2018-04-10T03:11:41.019Z,930.55
2018-04-10T03:12:41.067Z,930.53
2018-04-10T03:13:41.136Z,930.56
2018-04-10T03:14:41.159Z,930.53
2018-04-10T03:15:41.205Z,930.53
2018-04-10T03:16:41.244Z,930.53
2018-04-10T03:17:41.323Z,930.56
2018-04-10T03:18:41.333Z,930.53
2018-04-10T03:19:41.488Z,930.55
2018-04-10T03:20:41.543Z,930.57
2018-04-10T03:21:41.481Z,930.61
2018-04-10T03:22:41.560Z,930.57
2018-04-10T03:23:41.564Z,930.60
2018-04-10T03:24:41.632Z,930.67
2018-04-10T03:25:41.693Z,930.57
2018-04-10T03:26:41.729Z,930.63
2018-04-10T03:27:41.760Z,930.56
2018-04-10T03:28:41.809Z,930.60
2018-04-10T03:29:41.894Z,930.57
2018-04-10T03:30:42.013Z,930.63
2018-04-10T03:31:41.946Z,930.56
2018-04-10T03:32:42.011Z,930.54
2018-04-10T03:33:42.061Z,930.53
2018-04-10T03:34:42.108Z,930.58
2018-04-10T03:35:42.256Z,930.60
2018-04-10T03:36:42.246Z,930.57
2018-04-10T03:37:42.240Z,930.58
2018-04-10T03:38:42.282Z,930.51
2018-04-10T03:39:42.328Z,930.52
2018-04-10T03:40:42.375Z,930.53
2018-04-10T03:41:42.435Z,930.50
2018-04-10T03:42:42.481Z,930.51
2018-04-10T03:43:42.516Z,930.52
2018-04-10T03:44:42.580Z,930.48
2018-04-10T03:45:42.700Z,930.53
2018-04-10T03:46:42.755Z,930.52
2018-04-10T03:47:42.706Z,930.41
2018-04-10T03:48:42.760Z,930.49
2018-04-10T03:49:42.787Z,930.47
2018-04-10T03:50:42.827Z,930.54
2018-04-10T03:51:42.888Z,930.49
2018-04-10T03:52:43.028Z,930.46
2018-04-10T03:53:43.004Z,930.46
2018-04-10T03:54:43.050Z,930.46
2018-04-10T03:55:43.111Z,930.47
2018-04-10T03:56:43.154Z,930.41
2018-04-10T03:57:43.272Z,930.41
2018-04-10T03:58:43.224Z,930.41
2018-04-10T03:59:43.284Z,930.41
2018-04-10T04:00:43.297Z,930.42
2018-04-10T04:01:43.337Z,930.39
2018-04-10T04:02:43.402Z,930.44
2018-04-10T04:03:43.529Z,930.49
2018-04-10T04:04:43.496Z,930.46
2018-04-10T04:05:43.551Z,930.46
2018-04-10T04:06:43.577Z,930.49
2018-04-10T04:07:43.643Z,930.46
2018-04-10T04:08:43.688Z,930.44
2018-04-10T04:09:43.746Z,930.44
2018-04-10T04:10:43.760Z,930.39
2018-04-10T04:11:43.808Z,930.36
2018-04-10T04:12:43.884Z,930.34
2018-04-10T04:13:44.016Z,930.30
2018-04-10T04:14:44.048Z,930.27
2018-04-10T04:15:44.007Z,930.24
2018-04-10T04:16:44.050Z,930.23
2018-04-10T04:17:44.096Z,930.21
2018-04-10T04:18:44.163Z,930.23
2018-04-10T04:19:44.209Z,930.26
2018-04-10T04:20:44.216Z,930.25
2018-04-10T04:21:44.309Z,930.22
2018-04-10T04:22:44.318Z,930.28
2018-04-10T04:23:44.363Z,930.27
2018-04-10T04:24:44.408Z,930.24
2018-04-10T04:25:44.591Z,930.24
2018-04-10T04:26:44.832Z,930.19
2018-04-10T04:27:44.551Z,930.20
2018-04-10T04:29:44.667Z,930.14
2018-04-10T04:30:44.677Z,930.14
2018-04-10T04:31:44.744Z,930.13
2018-04-10T04:32:44.888Z,930.12
2018-04-10T04:33:44.835Z,930.15
2018-04-10T04:34:44.873Z,930.15
2018-04-10T04:35:44.946Z,930.11
2018-04-10T04:37:45.117Z,930.09
2018-04-10T04:38:45.041Z,930.10
2018-04-10T04:39:45.104Z,930.07
2018-04-10T04:40:45.169Z,930.09
2018-04-10T04:41:45.202Z,930.11
2018-04-10T04:42:45.248Z,930.04
2018-04-10T04:43:45.410Z,930.05
2018-04-10T04:44:45.540Z,930.06
2018-04-10T04:45:45.400Z,930.13
2018-04-10T04:46:45.420Z,930.08
2018-04-10T04:47:45.471Z,930.05
2018-04-10T04:49:45.550Z,930.04
2018-04-10T04:50:45.599Z,930.07
2018-04-10T04:52:45.720Z,930.02
2018-04-10T04:53:45.841Z,930.06
2018-04-10T04:54:45.890Z,930.06
2018-04-10T04:55:45.881Z,930.03
2018-04-10T04:56:45.898Z,930.01
2018-04-10T04:57:45.931Z,930.01
2018-04-10T04:58:45.991Z,930.06
2018-04-10T04:59:46.018Z,930.03
2018-04-10T05:00:46.076Z,930.05
2018-04-10T05:01:46.136Z,930.04
2018-04-10T05:02:46.179Z,930.01
2018-04-10T05:03:46.226Z,930.02
2018-04-10T05:04:46.270Z,930.00
2018-04-10T05:05:46.387Z,930.00
2018-04-10T05:06:46.352Z,930.05
2018-04-10T05:07:46.398Z,930.03
2018-04-10T05:08:46.434Z,930.05
2018-04-10T05:09:46.480Z,930.02
2018-04-10T05:10:46.640Z,930.02
2018-04-10T05:11:46.583Z,929.98
2018-04-10T05:12:46.628Z,929.93
2018-04-10T05:13:46.655Z,929.93
2018-04-10T05:14:46.710Z,929.87
2018-04-10T05:15:46.793Z,929.88
2018-04-10T05:16:46.903Z,929.95
2018-04-10T05:17:46.856Z,929.88
2018-04-10T05:18:46.894Z,929.92
2018-04-10T05:19:46.959Z,929.95
2018-04-10T05:20:47.000Z,929.95
2018-04-10T05:21:47.024Z,929.97
2018-04-10T05:22:47.211Z,929.94
2018-04-10T05:23:47.111Z,929.91
2018-04-10T05:24:47.169Z,929.93
2018-04-10T05:25:47.225Z,929.88
2018-04-10T05:26:47.251Z,929.89
2018-04-10T05:27:47.335Z,929.90
2018-04-10T05:28:47.468Z,929.84
2018-04-10T05:29:47.403Z,929.88
2018-04-10T05:30:47.455Z,929.90
2018-04-10T05:31:47.477Z,929.82
2018-04-10T05:32:47.532Z,929.83
2018-04-10T05:33:47.609Z,929.79
2018-04-10T05:34:47.634Z,929.81
2018-04-10T05:35:47.689Z,929.78
2018-04-10T05:36:47.716Z,929.80
2018-04-10T05:37:47.969Z,929.76
2018-04-10T05:38:47.976Z,929.77
2018-04-10T05:39:47.975Z,929.78
2018-04-10T05:40:47.916Z,929.75
2018-04-10T05:41:47.975Z,929.81
2018-04-10T05:42:48.028Z,929.77
2018-04-10T05:43:48.054Z,929.81
2018-04-10T05:44:48.203Z,929.83
2018-04-10T05:45:48.118Z,929.78
2018-04-10T05:46:48.170Z,929.84
2018-04-10T05:47:48.221Z,929.82
2018-04-10T05:48:48.293Z,929.80
2018-04-10T05:49:48.317Z,929.82
2018-04-10T05:50:48.370Z,929.82
2018-04-10T05:51:48.397Z,929.81
2018-04-10T05:52:48.469Z,929.80
2018-04-10T05:53:48.494Z,929.78
2018-04-10T05:54:48.654Z,929.83
2018-04-10T05:55:48.700Z,929.78
2018-04-10T05:56:48.620Z,929.77
2018-04-10T05:57:48.689Z,929.81
2018-04-10T05:58:48.752Z,929.81
2018-04-10T05:59:48.777Z,929.79
2018-04-10T06:00:48.934Z,929.72
2018-04-10T06:01:48.908Z,929.78
2018-04-10T06:02:48.908Z,929.74
2018-04-10T06:03:48.945Z,929.73
2018-04-10T06:04:49.001Z,929.71
2018-04-10T06:05:49.083Z,929.72
2018-04-10T06:06:49.395Z,929.70
2018-04-10T06:07:49.138Z,929.66
2018-04-10T06:08:49.200Z,929.62
2018-04-10T06:09:49.252Z,929.68
2018-04-10T06:10:49.285Z,929.71
2018-04-10T06:11:49.318Z,929.70
2018-04-10T06:12:49.480Z,929.72
2018-04-10T06:13:49.430Z,929.74
2018-04-10T06:14:49.447Z,929.72
2018-04-10T06:15:49.555Z,929.73
2018-04-10T06:16:49.552Z,929.71
2018-04-10T06:17:49.634Z,929.66
2018-04-10T06:18:49.656Z,929.70
2018-04-10T06:19:49.716Z,929.67
2018-04-10T06:20:49.766Z,929.69
2018-04-10T06:21:49.792Z,929.71
2018-04-10T06:22:49.940Z,929.72
2018-04-10T06:23:49.969Z,929.72
2018-04-10T06:24:49.920Z,929.72
2018-04-10T06:25:49.990Z,929.73
2018-04-10T06:26:50.032Z,929.68
2018-04-10T06:27:50.058Z,929.71
2018-04-10T06:28:50.237Z,929.69
2018-04-10T06:29:50.147Z,929.69
2018-04-10T06:30:50.184Z,929.62
2018-04-10T06:31:50.243Z,929.65
2018-04-10T06:32:50.310Z,929.67
2018-04-10T06:33:50.349Z,929.66
2018-04-10T06:34:50.472Z,929.62
2018-04-10T06:35:50.536Z,929.66
2018-04-10T06:36:50.473Z,929.60
2018-04-10T06:37:50.547Z,929.61
2018-04-10T06:38:50.559Z,929.56
2018-04-10T06:39:50.630Z,929.54
2018-04-10T06:40:50.777Z,929.55
2018-04-10T06:41:50.858Z,929.60
2018-04-10T06:42:50.804Z,929.57
2018-04-10T06:43:50.782Z,929.60
2018-04-10T06:44:50.846Z,929.62
2018-04-10T06:45:50.873Z,929.70
2018-04-10T06:46:51.033Z,929.70
2018-04-10T06:47:50.983Z,929.70
2018-04-10T06:48:51.017Z,929.68
2018-04-10T06:49:51.063Z,929.68
2018-04-10T06:50:51.105Z,929.62
2018-04-10T06:51:51.173Z,929.67
2018-04-10T06:52:51.314Z,929.65
2018-04-10T06:53:51.235Z,929.65
2018-04-10T06:54:51.283Z,929.63
2018-04-10T06:55:51.326Z,929.59
2018-04-10T06:56:51.410Z,929.61
2018-04-10T06:57:51.429Z,929.59
2018-04-10T06:58:51.587Z,929.57
2018-04-10T06:59:51.616Z,929.51
2018-04-10T07:00:51.558Z,929.50
2018-04-10T07:01:51.632Z,929.52
2018-04-10T07:02:51.655Z,929.52
2018-04-10T07:03:51.696Z,929.53
2018-04-10T07:04:51.864Z,929.55
2018-04-10T07:05:51.892Z,929.54
2018-04-10T07:06:51.844Z,929.56
2018-04-10T07:07:51.887Z,929.54
2018-04-10T07:08:51.923Z,929.56
2018-04-10T07:09:51.991Z,929.54
2018-04-10T07:10:52.100Z,929.53
2018-04-10T07:11:52.084Z,929.52
2018-04-10T07:12:52.090Z,929.51
2018-04-10T07:13:52.147Z,929.46
2018-04-10T07:14:52.207Z,929.48
2018-04-10T07:15:52.347Z,929.52
2018-04-10T07:16:52.276Z,929.46
2018-04-10T07:17:52.348Z,929.50
2018-04-10T07:18:52.378Z,929.49
2018-04-10T07:19:52.422Z,929.51
2018-04-10T07:20:52.611Z,929.53
2018-04-10T07:21:52.642Z,929.54
2018-04-10T07:22:52.592Z,929.64
2018-04-10T07:23:52.594Z,929.60
2018-04-10T07:24:52.644Z,929.57
2018-04-10T07:25:52.711Z,929.58
2018-04-10T07:26:52.824Z,929.60
2018-04-10T07:27:52.782Z,929.64
2018-04-10T07:28:52.827Z,929.61
2018-04-10T07:29:52.897Z,929.59
2018-04-10T07:30:52.906Z,929.56
2018-04-10T07:31:53.097Z,929.54
2018-04-10T07:32:53.108Z,929.50
2018-04-10T07:33:53.061Z,929.46
2018-04-10T07:34:53.107Z,929.49
2018-04-10T07:35:53.157Z,929.45
2018-04-10T07:36:53.209Z,929.47
2018-04-10T07:37:53.363Z,929.47
2018-04-10T07:38:53.396Z,929.47
2018-04-10T07:39:53.330Z,929.48
2018-04-10T07:40:53.383Z,929.49
2018-04-10T07:41:53.437Z,929.50
2018-04-10T07:42:53.472Z,929.51
2018-04-10T07:43:53.606Z,929.48
2018-04-10T07:44:53.660Z,929.47
2018-04-10T07:45:53.635Z,929.48
2018-04-10T07:46:53.643Z,929.45
2018-04-10T07:47:53.699Z,929.48
2018-04-10T07:48:53.749Z,929.44
2018-04-10T07:49:53.867Z,929.45
2018-04-10T07:50:53.854Z,929.40
2018-04-10T07:51:53.878Z,929.47
2018-04-10T07:52:53.902Z,929.44
2018-04-10T07:53:53.977Z,929.47
2018-04-10T07:54:54.096Z,929.41
2018-04-10T07:55:54.166Z,929.49
2018-04-10T07:56:54.297Z,929.55
2018-04-10T07:57:54.155Z,929.53
2018-04-10T07:58:54.224Z,929.56
2018-04-10T07:59:54.259Z,929.47
2018-04-10T08:00:54.398Z,929.49
2018-04-10T08:01:54.417Z,929.50
2018-04-10T08:02:54.388Z,929.53
2018-04-10T08:03:54.435Z,929.52
2018-04-10T08:04:54.458Z,929.53
2018-04-10T08:05:54.492Z,929.57
2018-04-10T08:06:54.670Z,929.49
2018-04-10T08:07:54.701Z,929.57
2018-04-10T08:08:54.649Z,929.56
2018-04-10T08:09:54.697Z,929.57
2018-04-10T08:10:54.738Z,929.56
2018-04-10T08:11:54.784Z,929.60
2018-04-10T08:12:54.910Z,929.58
2018-04-10T08:13:54.974Z,929.57
2018-04-10T08:14:54.905Z,929.63
2018-04-10T08:15:54.971Z,929.62
2018-04-10T08:16:55.004Z,929.65
2018-04-10T08:17:55.060Z,929.66
2018-04-10T08:18:55.226Z,929.69
2018-04-10T08:19:55.262Z,929.68
2018-04-10T08:20:55.186Z,929.67
2018-04-10T08:21:55.259Z,929.66
2018-04-10T08:22:55.291Z,929.68
2018-04-10T08:23:55.317Z,929.70
2018-04-10T08:24:55.473Z,929.72
2018-04-10T08:25:55.621Z,929.72
2018-04-10T08:26:55.440Z,929.67
2018-04-10T08:27:55.499Z,929.74
2018-04-10T08:28:55.552Z,929.75
2018-04-10T08:29:55.687Z,929.73
2018-04-10T08:30:55.645Z,929.77
2018-04-10T08:31:55.679Z,929.75
2018-04-10T08:32:55.727Z,929.77
2018-04-10T08:33:55.771Z,929.81
2018-04-10T08:34:55.918Z,929.85
2018-04-10T08:36:55.914Z,929.90
2018-04-10T08:37:55.982Z,929.89
2018-04-10T08:38:56.006Z,929.91
2018-04-10T08:39:56.068Z,929.95
2018-04-10T08:40:56.202Z,929.95
2018-04-10T08:41:56.228Z,929.98
2018-04-10T08:42:56.201Z,929.99
2018-04-10T08:43:56.257Z,929.99
2018-04-10T08:44:56.283Z,930.02
2018-04-10T08:45:56.310Z,930.00
2018-04-10T08:46:56.475Z,929.96
2018-04-10T08:48:56.485Z,929.99
2018-04-10T08:49:56.497Z,930.03
2018-04-10T08:50:56.548Z,930.00
2018-04-10T08:51:56.587Z,929.99
2018-04-10T08:52:56.740Z,929.99
2018-04-10T08:53:56.775Z,930.01
2018-04-10T08:54:56.720Z,929.99
2018-04-10T08:55:56.791Z,930.00
2018-04-10T08:56:56.808Z,929.98
2018-04-10T08:57:56.844Z,930.00
2018-04-10T08:58:57.024Z,929.95
2018-04-10T08:59:56.960Z,929.99
2018-04-10T09:00:57.009Z,930.00
2018-04-10T09:01:57.045Z,930.03
2018-04-10T09:02:57.093Z,930.00
2018-04-10T09:03:57.249Z,930.01
2018-04-10T09:04:57.167Z,930.06
2018-04-10T09:05:57.275Z,930.12
2018-04-10T09:06:57.302Z,930.13
2018-04-10T09:07:57.304Z,930.12
2018-04-10T09:08:57.461Z,930.13
2018-04-10T09:09:57.503Z,930.20
2018-04-10T09:10:57.461Z,930.16
2018-04-10T09:11:57.531Z,930.13
2018-04-10T09:12:57.556Z,930.12
2018-04-10T09:13:57.603Z,930.17
2018-04-10T09:14:57.717Z,930.18
2018-04-10T09:15:57.780Z,930.24
2018-04-10T09:16:57.757Z,930.22
2018-04-10T09:17:57.770Z,930.31
2018-04-10T09:18:58.039Z,930.25
2018-04-10T09:19:57.868Z,930.28
2018-04-10T09:20:58.023Z,930.30
2018-04-10T09:21:57.977Z,930.34
2018-04-10T09:22:58.005Z,930.29
2018-04-10T09:23:58.052Z,930.34
2018-04-10T09:24:58.100Z,930.41
2018-04-10T09:25:58.232Z,930.39
2018-04-10T09:26:58.485Z,930.42
2018-04-10T09:27:58.221Z,930.44
2018-04-10T09:28:58.296Z,930.41
2018-04-10T09:29:58.324Z,930.40
2018-04-10T09:30:58.382Z,930.39
2018-04-10T09:31:58.512Z,930.42
2018-04-10T09:32:58.455Z,930.37
2018-04-10T09:33:58.504Z,930.41
2018-04-10T09:34:58.559Z,930.40
2018-04-10T09:35:58.612Z,930.39
2018-04-10T09:36:58.749Z,930.34
2018-04-10T09:37:58.789Z,930.41
2018-04-10T09:38:58.755Z,930.51
2018-04-10T09:39:58.786Z,930.50
2018-04-10T09:40:58.845Z,930.57
2018-04-10T09:41:58.862Z,930.60
2018-04-10T09:42:59.006Z,930.59
2018-04-10T09:43:59.059Z,930.56
2018-04-10T09:44:59.016Z,930.55
2018-04-10T09:45:59.048Z,930.53
2018-04-10T09:46:59.079Z,930.54
2018-04-10T09:47:59.149Z,930.53
2018-04-10T09:48:59.287Z,930.52
2018-04-10T09:49:59.326Z,930.52
2018-04-10T09:50:59.275Z,930.50
2018-04-10T09:51:59.542Z,930.56
2018-04-10T09:52:59.365Z,930.54
2018-04-10T09:53:59.432Z,930.62
2018-04-10T09:54:59.571Z,930.63
2018-04-10T09:55:59.620Z,930.66
2018-04-10T09:56:59.555Z,930.65
2018-04-10T09:57:59.637Z,930.70
2018-04-10T09:58:59.661Z,930.69
2018-04-10T09:59:59.714Z,930.68
2018-04-10T10:00:59.835Z,930.72
2018-04-10T10:01:59.874Z,930.75
2018-04-10T10:02:59.883Z,930.79
2018-04-10T10:03:59.882Z,930.83
2018-04-10T10:04:59.933Z,930.84
2018-04-10T10:06:00.178Z,930.87
2018-04-10T10:08:00.180Z,930.85
2018-04-10T10:09:00.119Z,930.89
2018-04-10T10:10:00.359Z,930.91
2018-04-10T10:12:00.245Z,930.95
2018-04-10T10:13:00.385Z,930.94
2018-04-10T10:14:00.444Z,930.91
2018-04-10T10:15:00.394Z,930.95
2018-04-10T10:17:00.491Z,930.94
2018-04-10T10:18:00.534Z,930.91
2018-04-10T10:19:00.668Z,930.95
2018-04-10T10:20:00.762Z,930.99
2018-04-10T10:21:00.669Z,931.03
2018-04-10T10:22:00.721Z,931.04
2018-04-10T10:23:00.776Z,931.12
2018-04-10T10:24:00.826Z,931.10
2018-04-10T10:25:00.971Z,931.07
2018-04-10T10:26:01.027Z,931.09
2018-04-10T10:27:00.944Z,931.07
2018-04-10T10:28:01.035Z,931.10
2018-04-10T10:29:01.040Z,931.23
2018-04-10T10:30:01.107Z,931.16
2018-04-10T10:31:01.277Z,931.14
2018-04-10T10:32:01.299Z,931.16
2018-04-10T10:33:01.266Z,931.17
2018-04-10T10:34:01.309Z,931.14
2018-04-10T10:35:01.346Z,931.14
2018-04-10T10:36:01.427Z,931.13
2018-04-10T10:37:01.529Z,931.10
2018-04-10T10:38:01.480Z,931.13
2018-04-10T10:39:01.530Z,931.13
2018-04-10T10:40:01.574Z,931.11
2018-04-10T10:41:01.641Z,931.17
2018-04-10T10:42:01.771Z,931.23
2018-04-10T10:43:01.835Z,931.17
2018-04-10T10:44:01.792Z,931.23
2018-04-10T10:45:02.012Z,931.17
2018-04-10T10:46:01.885Z,931.26
2018-04-10T10:47:01.916Z,931.15
2018-04-10T10:48:02.064Z,931.19
2018-04-10T10:49:02.133Z,931.19
2018-04-10T10:50:02.043Z,931.18
2018-04-10T10:51:02.106Z,931.20
2018-04-10T10:52:02.175Z,931.11
2018-04-10T10:53:02.193Z,931.28
2018-04-10T10:54:02.350Z,931.12
2018-04-10T10:55:02.280Z,931.17
2018-04-10T10:56:02.325Z,931.13
2018-04-10T10:57:02.420Z,931.17
2018-04-10T10:58:02.435Z,931.21
2018-04-10T10:59:02.787Z,931.18
2018-04-10T11:00:02.640Z,931.19
2018-04-10T11:01:02.854Z,931.21
2018-04-10T11:02:02.635Z,931.22
2018-04-10T11:03:02.682Z,931.22
2018-04-10T11:04:02.726Z,931.19
2018-04-10T11:05:02.892Z,931.19
2018-04-10T11:07:02.862Z,931.24
2018-04-10T11:08:02.919Z,931.23
2018-04-10T11:09:02.987Z,931.19
2018-04-10T11:10:03.119Z,931.24
2018-04-10T11:11:03.060Z,931.22
2018-04-10T11:12:03.127Z,931.23
2018-04-10T11:14:03.202Z,931.25
2018-04-10T11:15:03.362Z,931.17
2018-04-10T11:16:03.308Z,931.22
2018-04-10T11:17:03.367Z,931.21
2018-04-10T11:18:03.392Z,931.18
2018-04-10T11:19:03.486Z,931.22
2018-04-10T11:20:03.596Z,931.22
2018-04-10T11:21:03.652Z,931.22
2018-04-10T11:22:03.630Z,931.23
2018-04-10T11:23:03.902Z,931.27
2018-04-10T11:24:03.711Z,931.24
2018-04-10T11:25:03.748Z,931.24
2018-04-10T11:26:03.933Z,931.25
2018-04-10T11:27:03.964Z,931.25
2018-04-10T11:28:03.936Z,931.28
2018-04-10T11:29:03.976Z,931.27
2018-04-10T11:31:04.118Z,931.36
2018-04-10T11:32:04.229Z,931.34
2018-04-10T11:33:04.175Z,931.38
2018-04-10T11:34:04.292Z,931.49
2018-04-10T11:35:04.289Z,931.43
2018-04-10T11:36:04.347Z,931.48
2018-04-10T11:37:04.526Z,931.47
2018-04-10T11:38:04.483Z,931.52
2018-04-10T11:39:04.511Z,931.48
2018-04-10T11:40:04.558Z,931.49
2018-04-10T11:41:04.631Z,931.54
2018-04-10T11:42:04.818Z,931.49
2018-04-10T11:43:04.836Z,931.51
2018-04-10T11:44:04.781Z,931.48
2018-04-10T11:45:04.852Z,931.57
2018-04-10T11:46:04.884Z,931.54
2018-04-10T11:47:04.980Z,931.59
2018-04-10T11:48:05.094Z,931.55
2018-04-10T11:49:05.164Z,931.63
2018-04-10T11:50:05.103Z,931.60
2018-04-10T11:51:05.166Z,931.67
2018-04-10T11:52:05.214Z,931.68
2018-04-10T11:53:05.287Z,931.69
2018-04-10T11:54:05.440Z,931.73
2018-04-10T11:55:05.497Z,931.70
2018-04-10T11:56:05.446Z,931.69
2018-04-10T11:57:05.506Z,931.67
2018-04-10T11:58:05.547Z,931.73
2018-04-10T11:59:05.630Z,931.67
2018-04-10T12:00:05.774Z,931.63
2018-04-10T12:01:05.828Z,931.64
2018-04-10T12:03:06.024Z,931.62
2018-04-10T12:04:05.877Z,931.64
2018-04-10T12:05:05.948Z,931.69
2018-04-10T12:06:06.117Z,931.75
2018-04-10T12:07:06.141Z,931.70
2018-04-10T12:08:06.128Z,931.75
2018-04-10T12:09:06.203Z,931.79
2018-04-10T12:10:06.237Z,931.81
2018-04-10T12:11:06.469Z,931.82
2018-04-10T12:12:06.431Z,931.87
2018-04-10T12:13:06.473Z,931.80
2018-04-10T12:14:06.453Z,931.78
2018-04-10T12:15:06.520Z,931.82
2018-04-10T12:16:06.605Z,931.76
2018-04-10T12:17:06.803Z,931.75
2018-04-10T12:18:06.757Z,931.81
2018-04-10T12:19:06.818Z,931.79
2018-04-10T12:20:06.794Z,931.77
2018-04-10T12:21:06.845Z,931.76
2018-04-10T12:22:06.876Z,931.74
2018-04-10T12:23:06.947Z,931.75
2018-04-10T12:24:07.117Z,931.74
2018-04-10T12:25:07.156Z,931.74
2018-04-10T12:26:07.100Z,931.73
2018-04-10T12:27:07.169Z,931.73
2018-04-10T12:28:07.215Z,931.72
2018-04-10T12:29:07.296Z,931.73
2018-04-10T12:30:07.424Z,931.74
2018-04-10T12:31:07.412Z,931.74
2018-04-10T12:32:07.448Z,931.72
2018-04-10T12:33:07.501Z,931.83
2018-04-10T12:34:07.592Z,931.72
2018-04-10T12:35:07.713Z,931.75
2018-04-10T12:36:07.709Z,931.76
2018-04-10T12:37:07.720Z,931.76
2018-04-10T12:38:07.806Z,931.78
2018-04-10T12:40:07.989Z,931.80
2018-04-10T12:41:08.086Z,931.77
2018-04-10T12:42:08.014Z,931.80
2018-04-10T12:43:08.109Z,931.82
2018-04-10T12:44:08.121Z,931.78
2018-04-10T12:45:08.205Z,931.78
2018-04-10T12:46:08.325Z,931.82
2018-04-10T12:47:08.378Z,931.79
2018-04-10T12:48:08.341Z,931.80
2018-04-10T12:49:08.419Z,931.80
2018-04-10T12:50:08.464Z,931.78